createdAt,value
2023-10-07T00:01:46.680Z,47.55
2023-10-07T00:04:10.643Z,47.60
2023-10-07T00:06:31.370Z,47.79
2023-10-07T00:08:52.321Z,47.98
2023-10-07T00:11:13.456Z,47.77
2023-10-07T00:13:34.509Z,48.10
2023-10-07T00:15:55.033Z,47.95
2023-10-07T00:18:19.965Z,47.99
2023-10-07T00:20:57.521Z,48.12
2023-10-07T00:23:23.160Z,48.21
2023-10-07T00:25:49.866Z,48.20
2023-10-07T00:28:19.663Z,48.61
2023-10-07T00:30:40.526Z,48.69
2023-10-07T00:33:03.734Z,49.26
2023-10-07T00:35:25.329Z,48.97
2023-10-07T00:37:46.209Z,49.56
2023-10-07T00:40:31.882Z,48.91
2023-10-07T00:42:53.664Z,48.22
2023-10-07T00:45:17.809Z,48.55
2023-10-07T00:47:41.701Z,48.49
2023-10-07T00:50:02.612Z,48.38
2023-10-07T00:52:34.516Z,48.31
2023-10-07T00:55:18.604Z,48.17
2023-10-07T00:57:48.809Z,48.16
2023-10-07T01:00:28.400Z,48.05
2023-10-07T01:02:53.293Z,48.35
2023-10-07T01:05:15.089Z,48.25
2023-10-07T01:07:36.323Z,47.99
2023-10-07T01:10:13.133Z,48.32
2023-10-07T01:12:37.962Z,48.34
2023-10-07T01:14:59.056Z,47.48
2023-10-07T01:17:31.968Z,47.64
2023-10-07T01:19:56.088Z,47.58
2023-10-07T01:22:20.402Z,48.11
2023-10-07T01:24:40.863Z,47.74
2023-10-07T01:27:19.773Z,47.93
2023-10-07T01:29:43.262Z,48.41
2023-10-07T01:32:16.964Z,47.31
2023-10-07T01:34:37.571Z,47.38
2023-10-07T01:37:02.118Z,47.39
2023-10-07T01:39:23.874Z,47.40
2023-10-07T01:41:46.903Z,47.39
2023-10-07T01:44:07.671Z,47.41
2023-10-07T01:46:32.297Z,47.31
2023-10-07T01:48:56.833Z,47.16
2023-10-07T01:51:18.992Z,48.01
2023-10-07T01:53:39.796Z,47.18
2023-10-07T01:56:05.967Z,47.10
2023-10-07T01:58:27.056Z,46.90
2023-10-07T02:00:53.020Z,47.24
2023-10-07T02:03:18.159Z,47.09
2023-10-07T02:05:42.273Z,47.22
2023-10-07T02:08:04.079Z,46.59
2023-10-07T02:10:27.324Z,46.47
2023-10-07T02:12:48.170Z,46.45
2023-10-07T02:15:20.428Z,46.59
2023-10-07T02:17:41.358Z,47.52
2023-10-07T02:20:22.333Z,47.45
2023-10-07T02:22:45.910Z,47.60
2023-10-07T02:25:08.594Z,48.16
2023-10-07T02:27:30.204Z,47.95
2023-10-07T02:29:57.693Z,47.85
2023-10-07T02:32:18.924Z,47.49
2023-10-07T02:34:52.342Z,47.70
2023-10-07T02:37:13.189Z,47.40
2023-10-07T02:39:49.115Z,47.52
2023-10-07T02:42:11.358Z,48.11
2023-10-07T02:44:32.491Z,48.15
2023-10-07T02:46:57.400Z,47.95
2023-10-07T02:49:21.958Z,48.07
2023-10-07T02:51:50.519Z,48.12
2023-10-07T02:54:21.723Z,48.58
2023-10-07T02:56:45.865Z,48.56
2023-10-07T02:59:23.435Z,47.77
2023-10-07T03:01:59.459Z,48.28
2023-10-07T03:04:23.779Z,48.29
2023-10-07T03:06:47.616Z,47.97
2023-10-07T03:09:19.649Z,48.60
2023-10-07T03:11:50.169Z,49.01
2023-10-07T03:14:14.933Z,48.92
2023-10-07T03:16:44.508Z,48.99
2023-10-07T03:19:05.084Z,48.48
2023-10-07T03:21:45.936Z,48.96
2023-10-07T03:24:14.775Z,48.89
2023-10-07T03:26:35.811Z,49.02
2023-10-07T03:28:56.851Z,48.71
2023-10-07T03:31:21.075Z,48.56
2023-10-07T03:33:53.290Z,48.47
2023-10-07T03:36:24.271Z,48.54
2023-10-07T03:38:44.937Z,48.70
2023-10-07T03:41:10.789Z,48.65
2023-10-07T03:43:33.936Z,48.52
2023-10-07T03:45:58.130Z,49.19
2023-10-07T03:48:25.397Z,49.04
2023-10-07T03:50:46.070Z,48.95
2023-10-07T03:53:06.730Z,48.14
2023-10-07T03:55:29.918Z,48.31
2023-10-07T03:57:50.679Z,48.68
2023-10-07T04:00:12.625Z,48.95
2023-10-07T04:02:36.685Z,48.51
2023-10-07T04:05:02.013Z,48.27
2023-10-07T04:07:23.003Z,47.84
2023-10-07T04:09:44.272Z,47.76
2023-10-07T04:12:07.248Z,48.61
2023-10-07T04:14:32.082Z,48.43
2023-10-07T04:16:53.662Z,48.42
2023-10-07T04:19:17.267Z,48.29
2023-10-07T04:21:40.896Z,48.17
2023-10-07T04:24:02.296Z,47.98
2023-10-07T04:26:23.575Z,47.90
2023-10-07T04:28:44.077Z,48.16
2023-10-07T04:31:10.902Z,48.83
2023-10-07T04:33:40.680Z,48.61
2023-10-07T04:36:05.642Z,49.16
2023-10-07T04:38:26.328Z,49.09
2023-10-07T04:41:15.565Z,48.53
2023-10-07T04:43:49.828Z,48.78
2023-10-07T04:46:23.459Z,48.22
2023-10-07T04:48:55.521Z,48.77
2023-10-07T04:51:25.140Z,49.08
2023-10-07T04:53:58.644Z,49.19
2023-10-07T04:56:22.568Z,49.99
2023-10-07T04:58:45.405Z,50.22
2023-10-07T05:01:32.141Z,50.12
2023-10-07T05:03:56.710Z,49.88
2023-10-07T05:06:17.484Z,49.45
2023-10-07T05:08:39.097Z,49.72
2023-10-07T05:11:06.957Z,49.92
2023-10-07T05:13:27.861Z,48.90
2023-10-07T05:15:48.775Z,49.16
2023-10-07T05:18:14.058Z,49.03
2023-10-07T05:20:38.476Z,48.85
2023-10-07T05:23:01.827Z,48.37
2023-10-07T05:25:23.253Z,48.59
2023-10-07T05:27:45.420Z,49.21
2023-10-07T05:30:08.844Z,49.38
2023-10-07T05:32:29.698Z,49.57
2023-10-07T05:34:50.825Z,48.81
2023-10-07T05:37:15.207Z,48.42
2023-10-07T05:39:35.867Z,48.01
2023-10-07T05:41:57.525Z,48.22
2023-10-07T05:44:18.418Z,48.71
2023-10-07T05:46:39.172Z,48.97
2023-10-07T05:49:00.257Z,49.48
2023-10-07T05:51:21.334Z,48.95
2023-10-07T05:53:52.847Z,50.01
2023-10-07T05:56:13.612Z,50.10
2023-10-07T05:58:38.227Z,49.87
2023-10-07T06:00:59.572Z,49.63
2023-10-07T06:03:20.632Z,49.68
2023-10-07T06:05:41.627Z,50.00
2023-10-07T06:08:02.546Z,50.11
2023-10-07T06:10:25.210Z,50.12
2023-10-07T06:12:46.092Z,50.12
2023-10-07T06:15:09.715Z,50.06
2023-10-07T06:17:30.547Z,50.23
2023-10-07T06:19:52.727Z,50.28
2023-10-07T06:22:13.668Z,50.38
2023-10-07T06:24:34.542Z,50.60
2023-10-07T06:26:55.330Z,50.42
2023-10-07T06:29:20.208Z,50.29
2023-10-07T06:31:42.383Z,50.60
2023-10-07T06:34:13.472Z,50.26
2023-10-07T06:36:34.246Z,50.75
2023-10-07T06:38:59.670Z,50.24
2023-10-07T06:41:21.178Z,51.03
2023-10-07T06:43:43.989Z,50.86
2023-10-07T06:46:12.183Z,50.42
2023-10-07T06:48:33.312Z,49.91
2023-10-07T06:50:54.273Z,49.96
2023-10-07T06:53:22.305Z,49.88
2023-10-07T06:55:44.665Z,50.06
2023-10-07T06:58:07.885Z,49.95
2023-10-07T07:00:48.395Z,50.34
2023-10-07T07:03:11.670Z,49.98
2023-10-07T07:05:36.264Z,50.11
2023-10-07T07:07:57.360Z,49.09
2023-10-07T07:10:18.272Z,49.12
2023-10-07T07:12:39.246Z,48.77
2023-10-07T07:15:06.681Z,48.32
2023-10-07T07:17:30.658Z,47.96
2023-10-07T07:20:12.902Z,47.98
2023-10-07T07:22:36.007Z,47.55
2023-10-07T07:24:56.816Z,47.15
2023-10-07T07:27:18.438Z,47.17
2023-10-07T07:29:39.422Z,47.45
2023-10-07T07:32:00.292Z,47.39
2023-10-07T07:34:26.070Z,46.69
2023-10-07T07:36:49.512Z,46.27
2023-10-07T07:39:11.268Z,46.43
2023-10-07T07:41:36.049Z,45.91
2023-10-07T07:44:00.551Z,45.17
2023-10-07T07:46:39.933Z,45.19
2023-10-07T07:49:07.488Z,45.82
2023-10-07T07:51:28.297Z,44.67
2023-10-07T07:53:49.322Z,44.73
2023-10-07T07:56:13.941Z,44.49
2023-10-07T07:58:34.535Z,44.30
2023-10-07T08:01:05.762Z,44.59
2023-10-07T08:03:26.902Z,44.08
2023-10-07T08:05:48.402Z,44.83
2023-10-07T08:08:25.655Z,44.56
2023-10-07T08:10:47.936Z,44.04
2023-10-07T08:13:08.736Z,43.50
2023-10-07T08:15:40.107Z,42.89
2023-10-07T08:18:07.838Z,43.49
2023-10-07T08:20:41.668Z,42.98
2023-10-07T08:23:08.762Z,42.08
2023-10-07T08:25:38.384Z,42.07
2023-10-07T08:28:15.510Z,41.79
2023-10-07T08:30:39.348Z,41.27
2023-10-07T08:33:02.341Z,41.60
2023-10-07T08:35:27.078Z,40.76
2023-10-07T08:37:48.740Z,41.14
2023-10-07T08:40:19.603Z,40.47
2023-10-07T08:42:47.179Z,40.42
2023-10-07T08:45:15.575Z,39.80
2023-10-07T08:47:44.843Z,40.14
2023-10-07T08:50:08.013Z,39.19
2023-10-07T08:52:30.997Z,38.71
2023-10-07T08:54:52.918Z,39.31
2023-10-07T08:57:17.867Z,38.71
2023-10-07T08:59:39.272Z,38.48
2023-10-07T09:02:14.051Z,37.74
2023-10-07T09:04:35.176Z,37.49
2023-10-07T09:06:55.590Z,37.03
2023-10-07T09:09:33.492Z,36.74
2023-10-07T09:11:55.263Z,36.54
2023-10-07T09:14:19.587Z,35.00
2023-10-07T09:16:42.133Z,34.64
2023-10-07T09:19:14.111Z,34.00
2023-10-07T09:21:35.248Z,33.48
2023-10-07T09:24:03.496Z,32.25
2023-10-07T09:26:31.485Z,33.31
2023-10-07T09:29:21.039Z,32.08
2023-10-07T09:31:43.512Z,31.89
2023-10-07T09:34:10.783Z,31.50
2023-10-07T09:36:31.927Z,31.82
2023-10-07T09:39:17.716Z,31.68
2023-10-07T09:41:38.967Z,31.86
2023-10-07T09:44:01.319Z,31.44
2023-10-07T09:46:38.355Z,30.63
2023-10-07T09:48:59.386Z,30.71
2023-10-07T09:51:35.810Z,30.65
2023-10-07T09:54:23.503Z,30.36
2023-10-07T09:57:15.562Z,29.44
2023-10-07T09:59:41.220Z,29.14
2023-10-07T10:02:26.971Z,29.19
2023-10-07T10:05:06.016Z,29.53
2023-10-07T10:07:45.185Z,30.10
2023-10-07T10:13:03.228Z,28.67
2023-10-07T10:15:37.961Z,29.48
2023-10-07T10:18:03.304Z,29.66
2023-10-07T10:20:28.987Z,29.29
2023-10-07T10:22:53.915Z,29.18
2023-10-07T10:25:18.176Z,29.12
2023-10-07T10:27:45.710Z,29.90
2023-10-07T10:30:07.321Z,29.71
2023-10-07T10:32:29.945Z,29.52
2023-10-07T10:34:51.428Z,29.22
2023-10-07T10:37:11.931Z,28.89
2023-10-07T10:39:41.387Z,29.50
2023-10-07T10:42:10.948Z,29.97
2023-10-07T10:44:41.038Z,30.64
2023-10-07T10:47:01.508Z,30.39
2023-10-07T10:49:22.439Z,30.00
2023-10-07T10:51:47.051Z,29.27
2023-10-07T10:54:07.908Z,29.26
2023-10-07T10:56:28.423Z,29.41
2023-10-07T10:58:56.450Z,29.51
2023-10-07T11:01:17.855Z,29.46
2023-10-07T11:03:39.276Z,28.70
2023-10-07T11:06:01.401Z,28.05
2023-10-07T11:08:26.013Z,27.48
2023-10-07T11:10:49.504Z,28.11
2023-10-07T11:13:10.188Z,27.10
2023-10-07T11:15:31.002Z,28.27
2023-10-07T11:17:55.832Z,28.05
2023-10-07T11:20:20.715Z,28.74
2023-10-07T11:22:43.463Z,28.03
2023-10-07T11:25:05.345Z,28.50
2023-10-07T11:27:28.051Z,28.28
2023-10-07T11:29:59.248Z,29.32
2023-10-07T11:32:30.595Z,28.53
2023-10-07T11:34:51.632Z,28.05
2023-10-07T11:37:14.471Z,28.89
2023-10-07T11:39:39.983Z,28.62
2023-10-07T11:42:02.581Z,28.89
2023-10-07T11:44:24.056Z,28.17
2023-10-07T11:46:45.703Z,28.65
2023-10-07T11:49:06.076Z,29.01
2023-10-07T11:51:28.657Z,29.27
2023-10-07T11:53:50.057Z,28.46
2023-10-07T11:56:13.066Z,28.10
2023-10-07T11:58:34.380Z,28.81
2023-10-07T12:00:56.480Z,28.06
2023-10-07T12:03:18.598Z,27.83
2023-10-07T12:05:44.819Z,27.41
2023-10-07T12:08:05.813Z,26.34
2023-10-07T12:10:29.090Z,25.68
2023-10-07T12:12:53.237Z,25.39
2023-10-07T12:15:17.181Z,25.14
2023-10-07T12:17:38.167Z,24.23
2023-10-07T12:19:59.563Z,24.37
2023-10-07T12:22:20.304Z,23.84
2023-10-07T12:24:43.199Z,24.08
2023-10-07T12:27:03.765Z,23.60
2023-10-07T12:29:27.349Z,24.44
2023-10-07T12:31:49.032Z,23.46
2023-10-07T12:34:11.202Z,24.12
2023-10-07T12:36:32.023Z,24.64
2023-10-07T12:38:52.703Z,25.01
2023-10-07T12:41:16.267Z,24.56
2023-10-07T12:43:39.166Z,24.22
2023-10-07T12:46:03.720Z,24.35
2023-10-07T12:48:24.238Z,24.33
2023-10-07T12:50:44.668Z,24.25
2023-10-07T12:53:05.965Z,24.00
2023-10-07T12:55:32.586Z,23.92
2023-10-07T12:57:53.477Z,23.94
2023-10-07T13:00:23.295Z,23.77
2023-10-07T13:02:45.382Z,24.34
2023-10-07T13:05:10.358Z,24.12
2023-10-07T13:07:30.750Z,23.42
2023-10-07T13:09:51.305Z,24.43
2023-10-07T13:12:16.935Z,24.43
2023-10-07T13:14:37.703Z,24.59
2023-10-07T13:16:59.015Z,24.59
2023-10-07T13:19:21.496Z,25.25
2023-10-07T13:21:42.922Z,24.88
2023-10-07T13:24:08.983Z,25.01
2023-10-07T13:26:32.146Z,24.58
2023-10-07T13:28:55.570Z,25.33
2023-10-07T13:31:18.335Z,25.38
2023-10-07T13:33:39.272Z,24.52
2023-10-07T13:36:02.481Z,24.61
2023-10-07T13:38:26.311Z,24.39
2023-10-07T13:40:47.038Z,24.44
2023-10-07T13:43:08.616Z,24.27
2023-10-07T13:45:32.150Z,24.09
2023-10-07T13:47:53.288Z,24.53
2023-10-07T13:50:16.818Z,24.27
2023-10-07T13:52:47.133Z,25.46
2023-10-07T13:55:23.682Z,24.76
2023-10-07T13:57:44.101Z,25.19
2023-10-07T14:00:24.798Z,25.39
2023-10-07T14:02:45.760Z,25.09
2023-10-07T14:05:07.037Z,24.77
2023-10-07T14:07:28.204Z,24.71
2023-10-07T14:09:50.496Z,24.70
2023-10-07T14:12:11.243Z,24.87
2023-10-07T14:14:32.374Z,25.18
2023-10-07T14:16:59.705Z,25.02
2023-10-07T14:19:21.671Z,24.64
2023-10-07T14:21:42.550Z,24.85
2023-10-07T14:24:04.834Z,24.60
2023-10-07T14:26:26.161Z,24.75
2023-10-07T14:28:47.200Z,24.90
2023-10-07T14:31:09.879Z,24.68
2023-10-07T14:33:31.592Z,24.91
2023-10-07T14:35:55.701Z,24.27
2023-10-07T14:38:16.548Z,25.22
2023-10-07T14:40:42.891Z,24.69
2023-10-07T14:43:05.421Z,25.07
2023-10-07T14:45:26.340Z,25.36
2023-10-07T14:47:47.479Z,24.42
2023-10-07T14:50:08.796Z,24.79
2023-10-07T14:52:29.242Z,24.75
2023-10-07T14:54:49.768Z,24.87
2023-10-07T14:57:11.454Z,25.52
2023-10-07T14:59:34.658Z,25.72
2023-10-07T15:01:55.667Z,25.39
2023-10-07T15:04:18.772Z,25.29
2023-10-07T15:06:39.742Z,25.29
2023-10-07T15:09:00.700Z,25.91
2023-10-07T15:11:22.843Z,25.43
2023-10-07T15:13:44.210Z,25.91
2023-10-07T15:16:12.583Z,25.67
2023-10-07T15:18:34.121Z,26.19
2023-10-07T15:21:06.374Z,26.71
2023-10-07T15:23:26.796Z,25.76
2023-10-07T15:25:47.344Z,26.30
2023-10-07T15:28:08.108Z,26.37
2023-10-07T15:30:28.547Z,26.63
2023-10-07T15:32:48.902Z,26.68
2023-10-07T15:35:09.569Z,26.72
2023-10-07T15:37:31.283Z,26.76
2023-10-07T15:39:52.237Z,26.89
2023-10-07T15:42:13.621Z,26.71
2023-10-07T15:44:34.096Z,27.07
2023-10-07T15:46:54.663Z,26.70
2023-10-07T15:49:15.779Z,27.13
2023-10-07T15:51:40.096Z,27.13
2023-10-07T15:54:00.965Z,27.38
2023-10-07T15:56:22.336Z,27.79
2023-10-07T15:58:44.129Z,27.99
2023-10-07T16:01:05.809Z,27.72
2023-10-07T16:03:27.311Z,28.12
2023-10-07T16:05:49.272Z,28.25
2023-10-07T16:08:11.874Z,28.08
2023-10-07T16:10:37.933Z,27.76
2023-10-07T16:12:59.150Z,28.32
2023-10-07T16:15:19.953Z,28.40
2023-10-07T16:17:41.809Z,28.62
2023-10-07T16:20:02.717Z,28.28
2023-10-07T16:22:23.558Z,28.78
2023-10-07T16:24:45.122Z,28.45
2023-10-07T16:27:05.973Z,28.79
2023-10-07T16:29:26.969Z,28.49
2023-10-07T16:31:48.771Z,27.89
2023-10-07T16:34:09.893Z,28.18
2023-10-07T16:36:31.607Z,27.80
2023-10-07T16:38:53.681Z,27.75
2023-10-07T16:41:18.024Z,27.66
2023-10-07T16:43:38.874Z,27.65
2023-10-07T16:46:04.114Z,27.29
2023-10-07T16:48:25.199Z,27.35
2023-10-07T16:50:56.467Z,27.52
2023-10-07T16:53:17.187Z,27.31
2023-10-07T16:55:39.316Z,27.35
2023-10-07T16:58:00.213Z,26.91
2023-10-07T17:00:20.867Z,27.51
2023-10-07T17:02:41.912Z,28.04
2023-10-07T17:05:03.801Z,28.11
2023-10-07T17:07:25.743Z,28.09
2023-10-07T17:09:46.370Z,28.01
2023-10-07T17:12:07.467Z,29.21
2023-10-07T17:14:28.005Z,29.43
2023-10-07T17:16:49.355Z,29.48
2023-10-07T17:19:13.718Z,28.77
2023-10-07T17:21:34.683Z,29.02
2023-10-07T17:23:55.104Z,28.40
2023-10-07T17:26:15.608Z,28.54
2023-10-07T17:28:36.910Z,28.38
2023-10-07T17:30:57.616Z,28.64
2023-10-07T17:33:18.077Z,28.47
2023-10-07T17:35:43.469Z,28.25
2023-10-07T17:38:05.621Z,28.77
2023-10-07T17:40:26.901Z,28.42
2023-10-07T17:42:48.295Z,28.43
2023-10-07T17:45:16.319Z,29.03
2023-10-07T17:47:36.920Z,29.14
2023-10-07T17:49:57.884Z,29.00
2023-10-07T17:52:18.372Z,29.29
2023-10-07T17:54:39.167Z,29.99
2023-10-07T17:56:59.816Z,30.22
2023-10-07T17:59:20.559Z,29.95
2023-10-07T18:01:41.448Z,29.33
2023-10-07T18:04:03.793Z,30.48
2023-10-07T18:06:24.520Z,30.90
2023-10-07T18:08:45.301Z,30.75
2023-10-07T18:11:06.557Z,30.64
2023-10-07T18:13:27.371Z,30.75
2023-10-07T18:15:47.828Z,30.90
2023-10-07T18:18:08.703Z,31.09
2023-10-07T18:20:29.829Z,31.56
2023-10-07T18:22:54.828Z,31.35
2023-10-07T18:25:15.378Z,31.20
2023-10-07T18:27:36.123Z,31.18
2023-10-07T18:29:56.805Z,30.99
2023-10-07T18:32:19.066Z,31.26
2023-10-07T18:34:40.093Z,31.27
2023-10-07T18:37:01.201Z,31.77
2023-10-07T18:39:22.012Z,31.55
2023-10-07T18:41:43.461Z,31.90
2023-10-07T18:44:04.792Z,31.98
2023-10-07T18:46:25.443Z,32.17
2023-10-07T18:48:46.419Z,31.59
2023-10-07T18:51:08.352Z,31.89
2023-10-07T18:53:28.799Z,32.03
2023-10-07T18:55:56.095Z,32.37
2023-10-07T18:58:17.026Z,32.45
2023-10-07T19:00:38.468Z,32.08
2023-10-07T19:02:59.753Z,32.22
2023-10-07T19:05:20.485Z,32.83
2023-10-07T19:07:42.789Z,32.04
2023-10-07T19:10:04.125Z,32.73
2023-10-07T19:12:25.002Z,32.11
2023-10-07T19:14:47.614Z,32.34
2023-10-07T19:17:09.933Z,32.36
2023-10-07T19:19:31.327Z,32.31
2023-10-07T19:21:52.171Z,32.78
2023-10-07T19:24:13.091Z,32.50
2023-10-07T19:26:34.281Z,32.90
2023-10-07T19:28:55.244Z,32.95
2023-10-07T19:31:18.568Z,33.28
2023-10-07T19:33:40.269Z,34.12
2023-10-07T19:36:04.290Z,34.01
2023-10-07T19:38:26.183Z,33.86
2023-10-07T19:40:51.106Z,34.25
2023-10-07T19:43:11.912Z,34.04
2023-10-07T19:45:33.695Z,33.89
2023-10-07T19:47:57.945Z,34.18
2023-10-07T19:50:18.982Z,34.00
2023-10-07T19:52:40.115Z,34.50
2023-10-07T19:55:00.872Z,34.08
2023-10-07T19:57:24.178Z,34.67
2023-10-07T19:59:44.975Z,34.59
2023-10-07T20:02:07.042Z,35.39
2023-10-07T20:04:27.708Z,35.14
2023-10-07T20:06:48.905Z,35.34
2023-10-07T20:09:11.288Z,35.09
2023-10-07T20:11:33.456Z,35.19
2023-10-07T20:13:54.967Z,34.39
2023-10-07T20:16:16.926Z,34.60
2023-10-07T20:18:37.616Z,35.01
2023-10-07T20:21:01.880Z,35.33
2023-10-07T20:23:22.618Z,35.40
2023-10-07T20:25:43.303Z,35.40
2023-10-07T20:28:04.847Z,35.21
2023-10-07T20:30:25.772Z,35.10
2023-10-07T20:32:48.299Z,35.26
2023-10-07T20:35:11.425Z,34.54
2023-10-07T20:37:32.430Z,34.06
2023-10-07T20:39:53.114Z,33.85
2023-10-07T20:42:13.814Z,33.02
2023-10-07T20:44:34.373Z,32.88
2023-10-07T20:46:55.040Z,32.68
2023-10-07T20:49:15.967Z,31.86
2023-10-07T20:51:36.666Z,31.01
2023-10-07T20:53:57.583Z,31.75
2023-10-07T20:56:23.290Z,31.00
2023-10-07T20:58:44.083Z,30.96
2023-10-07T21:01:07.414Z,30.68
2023-10-07T21:03:28.316Z,30.25
2023-10-07T21:05:49.139Z,29.89
2023-10-07T21:08:09.841Z,30.33
2023-10-07T21:10:30.311Z,30.06
2023-10-07T21:12:50.797Z,30.15
2023-10-07T21:15:11.653Z,29.75
2023-10-07T21:17:32.047Z,29.20
2023-10-07T21:19:53.078Z,28.75
2023-10-07T21:22:13.645Z,29.01
2023-10-07T21:24:34.458Z,29.28
2023-10-07T21:26:56.988Z,28.51
2023-10-07T21:29:17.780Z,28.31
2023-10-07T21:31:38.234Z,28.59
2023-10-07T21:33:59.092Z,28.12
2023-10-07T21:36:19.765Z,28.28
2023-10-07T21:38:40.606Z,27.81
2023-10-07T21:41:01.777Z,28.00
2023-10-07T21:43:22.316Z,28.27
2023-10-07T21:45:42.960Z,28.00
2023-10-07T21:48:04.751Z,27.67
2023-10-07T21:50:28.988Z,27.46
2023-10-07T21:52:49.932Z,27.37
2023-10-07T21:55:11.465Z,27.97
2023-10-07T21:57:32.562Z,27.46
2023-10-07T21:59:53.110Z,27.46
2023-10-07T22:02:13.833Z,27.47
2023-10-07T22:04:34.314Z,28.40
2023-10-07T22:06:55.325Z,27.43
2023-10-07T22:09:19.368Z,27.58
2023-10-07T22:11:40.753Z,27.33
2023-10-07T22:14:05.912Z,27.60
2023-10-07T22:16:27.546Z,27.82
2023-10-07T22:18:48.265Z,27.97
2023-10-07T22:21:11.900Z,27.64
2023-10-07T22:23:34.554Z,27.51
2023-10-07T22:25:57.878Z,28.05
2023-10-07T22:28:22.749Z,28.12
2023-10-07T22:30:50.807Z,28.33
2023-10-07T22:33:14.072Z,28.42
2023-10-07T22:35:41.516Z,28.84
2023-10-07T22:38:10.037Z,29.25
2023-10-07T22:40:33.466Z,29.42
2023-10-07T22:42:55.106Z,29.69
2023-10-07T22:45:19.268Z,30.66
2023-10-07T22:47:40.223Z,30.21
2023-10-07T22:50:01.663Z,30.57
2023-10-07T22:52:22.170Z,30.81
2023-10-07T22:54:50.899Z,31.36
2023-10-07T22:57:15.055Z,31.43
2023-10-07T22:59:39.300Z,31.80
2023-10-07T23:02:00.790Z,31.30
2023-10-07T23:04:22.878Z,31.93
2023-10-07T23:07:04.056Z,31.41
2023-10-07T23:09:38.183Z,30.69
2023-10-07T23:12:04.358Z,30.95
2023-10-07T23:14:26.841Z,31.06
2023-10-07T23:16:54.989Z,30.78
2023-10-07T23:19:17.707Z,30.85
2023-10-07T23:21:56.988Z,31.07
2023-10-07T23:24:36.134Z,30.75
2023-10-07T23:26:58.428Z,30.69
2023-10-07T23:29:19.205Z,31.38
2023-10-07T23:31:43.880Z,31.71
2023-10-07T23:34:24.759Z,32.00
2023-10-07T23:36:45.505Z,31.67
2023-10-07T23:39:20.072Z,31.25
2023-10-07T23:41:41.289Z,31.37
2023-10-07T23:44:02.257Z,31.50
2023-10-07T23:46:22.892Z,31.16
2023-10-07T23:48:47.782Z,30.74
2023-10-07T23:51:14.297Z,30.61
2023-10-07T23:53:37.418Z,30.22
2023-10-07T23:56:12.557Z,30.42
2023-10-07T23:58:52.113Z,30.05
